createdAt,value
2022-11-25T00:01:25.986Z,12.40
2022-11-25T00:03:55.682Z,12.40
2022-11-25T00:06:25.971Z,12.40
2022-11-25T00:08:56.219Z,12.60
2022-11-25T00:11:24.835Z,12.50
2022-11-25T00:13:53.606Z,12.40
2022-11-25T00:16:23.357Z,12.50
2022-11-25T00:18:54.174Z,12.50
2022-11-25T00:21:23.515Z,12.50
2022-11-25T00:23:52.747Z,12.50
2022-11-25T00:26:21.678Z,12.40
2022-11-25T00:28:50.227Z,12.40
2022-11-25T00:31:19.902Z,12.40
2022-11-25T00:33:48.598Z,12.40
2022-11-25T00:36:20.773Z,12.40
2022-11-25T00:38:49.904Z,12.40
2022-11-25T00:41:35.930Z,12.40
2022-11-25T00:44:22.111Z,12.40
2022-11-25T00:46:50.735Z,12.30
2022-11-25T00:49:19.238Z,12.30
2022-11-25T00:51:49.248Z,12.30
2022-11-25T00:54:17.781Z,12.30
2022-11-25T00:56:46.310Z,12.30
2022-11-25T00:59:15.037Z,12.30
2022-11-25T01:01:43.668Z,12.20
2022-11-25T01:04:12.180Z,12.20
2022-11-25T01:06:40.692Z,12.20
2022-11-25T01:09:12.154Z,12.20
2022-11-25T01:11:40.912Z,12.10
2022-11-25T01:14:11.055Z,12.20
2022-11-25T01:16:39.735Z,12.20
2022-11-25T01:19:09.368Z,12.30
2022-11-25T01:21:37.997Z,12.10
2022-11-25T01:24:07.276Z,12.10
2022-11-25T01:26:37.547Z,12.10
2022-11-25T01:29:07.082Z,12.10
2022-11-25T01:31:36.934Z,12.10
2022-11-25T01:34:06.532Z,12.10
2022-11-25T01:36:37.037Z,12.20
2022-11-25T01:39:06.056Z,12.20
2022-11-25T01:41:35.438Z,12.20
2022-11-25T01:44:09.828Z,12.20
2022-11-25T01:47:01.985Z,12.20
2022-11-25T01:49:36.520Z,12.20
2022-11-25T01:52:08.158Z,12.20
2022-11-25T01:54:38.653Z,12.10
2022-11-25T01:57:08.973Z,12.20
2022-11-25T01:59:40.604Z,12.20
2022-11-25T02:02:10.026Z,12.20
2022-11-25T02:04:39.620Z,12.20
2022-11-25T02:07:11.344Z,12.20
2022-11-25T02:09:41.187Z,12.20
2022-11-25T02:12:10.220Z,12.30
2022-11-25T02:14:41.030Z,12.20
2022-11-25T02:17:10.110Z,12.20
2022-11-25T02:19:44.749Z,12.20
2022-11-25T02:22:17.756Z,12.20
2022-11-25T02:24:47.721Z,12.20
2022-11-25T02:27:18.522Z,12.20
2022-11-25T02:29:47.551Z,12.30
2022-11-25T02:32:16.232Z,12.20
2022-11-25T02:34:48.215Z,12.20
2022-11-25T02:37:18.391Z,12.30
2022-11-25T02:39:47.794Z,12.30
2022-11-25T02:42:19.271Z,12.30
2022-11-25T02:44:49.937Z,12.30
2022-11-25T02:47:18.667Z,12.30
2022-11-25T02:49:47.415Z,12.30
2022-11-25T02:52:16.678Z,12.30
2022-11-25T02:54:45.465Z,12.30
2022-11-25T02:57:14.155Z,12.30
2022-11-25T02:59:44.152Z,12.30
2022-11-25T03:02:12.602Z,12.30
2022-11-25T03:04:41.274Z,12.30
2022-11-25T03:07:10.032Z,12.30
2022-11-25T03:09:39.156Z,12.40
2022-11-25T03:12:22.901Z,12.30
2022-11-25T03:14:56.377Z,12.30
2022-11-25T03:17:25.524Z,12.30
2022-11-25T03:19:55.970Z,12.30
2022-11-25T03:22:24.677Z,12.30
2022-11-25T03:24:53.221Z,12.20
2022-11-25T03:27:22.117Z,12.20
2022-11-25T03:29:51.066Z,12.20
2022-11-25T03:32:21.137Z,12.10
2022-11-25T03:34:49.795Z,12.10
2022-11-25T03:37:18.631Z,12.10
2022-11-25T03:39:47.282Z,12.10
2022-11-25T03:42:16.003Z,12.10
2022-11-25T03:44:44.871Z,12.00
2022-11-25T03:47:13.804Z,12.10
2022-11-25T03:49:44.549Z,12.10
2022-11-25T03:52:13.225Z,12.10
2022-11-25T03:54:43.297Z,12.10
2022-11-25T03:57:23.345Z,12.10
2022-11-25T03:59:51.939Z,12.10
2022-11-25T04:02:20.636Z,12.10
2022-11-25T04:04:52.632Z,12.10
2022-11-25T04:07:21.260Z,12.10
2022-11-25T04:09:50.266Z,12.20
2022-11-25T04:12:39.737Z,12.10
2022-11-25T04:15:10.632Z,12.10
2022-11-25T04:17:41.337Z,12.20
2022-11-25T04:20:12.193Z,12.20
2022-11-25T04:22:42.745Z,12.20
2022-11-25T04:25:12.863Z,12.20
2022-11-25T04:27:41.371Z,12.20
2022-11-25T04:30:10.751Z,12.20
2022-11-25T04:32:41.943Z,12.20
2022-11-25T04:35:13.237Z,12.20
2022-11-25T04:37:45.633Z,12.20
2022-11-25T04:40:15.829Z,12.20
2022-11-25T04:42:49.564Z,12.20
2022-11-25T04:45:23.379Z,12.30
2022-11-25T04:47:55.658Z,12.30
2022-11-25T04:50:26.119Z,12.30
2022-11-25T04:53:02.299Z,12.30
2022-11-25T04:55:31.208Z,12.20
2022-11-25T04:58:02.453Z,12.30
2022-11-25T05:00:31.637Z,12.30
2022-11-25T05:03:02.324Z,12.20
2022-11-25T05:05:34.386Z,12.20
2022-11-25T05:08:03.072Z,12.30
2022-11-25T05:10:31.664Z,12.30
2022-11-25T05:13:00.449Z,12.30
2022-11-25T05:15:29.569Z,12.30
2022-11-25T05:17:58.051Z,12.30
2022-11-25T05:20:46.741Z,12.30
2022-11-25T05:23:18.434Z,12.30
2022-11-25T05:25:47.114Z,12.30
2022-11-25T05:28:38.788Z,12.30
2022-11-25T05:31:07.473Z,12.30
2022-11-25T05:33:44.665Z,12.30
2022-11-25T05:36:15.671Z,12.30
2022-11-25T05:39:03.120Z,12.30
2022-11-25T05:41:51.917Z,12.30
2022-11-25T05:44:35.270Z,12.20
2022-11-25T05:47:22.779Z,12.20
2022-11-25T05:49:51.476Z,12.20
2022-11-25T05:52:21.781Z,12.20
2022-11-25T05:54:57.526Z,12.20
2022-11-25T05:57:28.882Z,12.20
2022-11-25T06:00:06.778Z,12.20
2022-11-25T06:02:46.658Z,12.30
2022-11-25T06:05:16.578Z,12.30
2022-11-25T06:07:46.725Z,12.30
2022-11-25T06:10:15.631Z,12.30
2022-11-25T06:12:44.896Z,12.20
2022-11-25T06:15:13.688Z,12.20
2022-11-25T06:17:42.296Z,12.20
2022-11-25T06:20:30.812Z,12.20
2022-11-25T06:23:02.111Z,12.20
2022-11-25T06:25:34.494Z,12.30
2022-11-25T06:28:18.855Z,12.20
2022-11-25T06:30:50.665Z,12.30
2022-11-25T06:33:32.283Z,12.20
2022-11-25T06:36:19.891Z,12.20
2022-11-25T06:38:51.009Z,12.30
2022-11-25T06:41:19.726Z,12.30
2022-11-25T06:43:48.296Z,12.30
2022-11-25T06:46:23.077Z,12.30
2022-11-25T06:48:53.098Z,12.30
2022-11-25T06:51:21.850Z,12.30
2022-11-25T06:53:51.884Z,12.30
2022-11-25T06:56:21.973Z,12.30
2022-11-25T06:58:52.519Z,12.30
2022-11-25T07:01:22.852Z,12.30
2022-11-25T07:03:53.201Z,12.30
2022-11-25T07:06:22.187Z,12.30
2022-11-25T07:08:53.856Z,12.30
2022-11-25T07:11:23.890Z,12.30
2022-11-25T07:13:53.633Z,12.30
2022-11-25T07:16:22.311Z,12.40
2022-11-25T07:18:50.994Z,12.50
2022-11-25T07:21:20.937Z,12.40
2022-11-25T07:23:49.676Z,12.50
2022-11-25T07:26:21.926Z,12.50
2022-11-25T07:28:50.859Z,12.50
2022-11-25T07:31:25.106Z,12.50
2022-11-25T07:33:57.313Z,12.50
2022-11-25T07:36:27.484Z,12.50
2022-11-25T07:38:56.416Z,12.40
2022-11-25T07:41:27.771Z,12.40
2022-11-25T07:43:57.739Z,12.40
2022-11-25T07:46:27.821Z,12.40
2022-11-25T07:48:57.308Z,12.40
2022-11-25T07:51:26.516Z,12.40
2022-11-25T07:53:55.477Z,12.40
2022-11-25T07:56:24.232Z,12.40
2022-11-25T07:58:54.492Z,12.40
2022-11-25T08:01:23.086Z,12.40
2022-11-25T08:03:52.267Z,12.30
2022-11-25T08:06:22.383Z,12.30
2022-11-25T08:08:53.092Z,12.30
2022-11-25T08:11:22.656Z,12.30
2022-11-25T08:13:51.532Z,12.30
2022-11-25T08:16:22.754Z,12.20
2022-11-25T08:18:51.530Z,12.20
2022-11-25T08:21:20.549Z,12.30
2022-11-25T08:23:49.335Z,12.40
2022-11-25T08:26:19.206Z,12.30
2022-11-25T08:28:48.557Z,12.30
2022-11-25T08:31:19.946Z,12.30
2022-11-25T08:33:50.521Z,12.30
2022-11-25T08:36:19.437Z,12.40
2022-11-25T08:38:49.981Z,12.40
2022-11-25T08:41:19.774Z,12.40
2022-11-25T08:43:48.311Z,12.40
2022-11-25T08:46:18.159Z,12.40
2022-11-25T08:48:47.020Z,12.40
2022-11-25T08:51:18.410Z,12.40
2022-11-25T08:53:47.586Z,12.30
2022-11-25T08:56:17.182Z,12.30
2022-11-25T08:58:49.248Z,12.30
2022-11-25T09:01:18.394Z,12.40
2022-11-25T09:03:49.070Z,12.40
2022-11-25T09:06:20.041Z,12.30
2022-11-25T09:08:49.129Z,12.40
2022-11-25T09:11:17.741Z,12.40
2022-11-25T09:13:46.290Z,12.40
2022-11-25T09:16:15.502Z,12.40
2022-11-25T09:18:45.827Z,12.40
2022-11-25T09:21:16.094Z,12.40
2022-11-25T09:23:46.239Z,12.40
2022-11-25T09:26:21.697Z,12.40
2022-11-25T09:28:50.524Z,12.30
2022-11-25T09:31:19.239Z,12.40
2022-11-25T09:33:48.000Z,12.40
2022-11-25T09:36:17.200Z,12.30
2022-11-25T09:38:47.447Z,12.40
2022-11-25T09:41:42.744Z,12.20
2022-11-25T09:44:53.279Z,12.20
2022-11-25T09:47:25.638Z,12.20
2022-11-25T09:50:04.518Z,12.20
2022-11-25T09:52:37.881Z,12.30
2022-11-25T09:55:10.612Z,12.20
2022-11-25T09:57:46.236Z,12.30
2022-11-25T10:00:16.418Z,12.20
2022-11-25T10:02:47.337Z,12.20
2022-11-25T10:05:18.609Z,12.20
2022-11-25T10:07:48.918Z,12.20
2022-11-25T10:10:21.309Z,12.20
2022-11-25T10:12:51.067Z,12.10
2022-11-25T10:15:22.566Z,12.10
2022-11-25T10:17:52.148Z,12.10
2022-11-25T10:20:22.040Z,12.10
2022-11-25T10:22:51.595Z,12.00
2022-11-25T10:25:23.248Z,12.10
2022-11-25T10:27:55.646Z,12.00
2022-11-25T10:30:25.264Z,12.00
2022-11-25T10:33:01.978Z,12.00
2022-11-25T10:35:33.522Z,12.00
2022-11-25T10:38:03.308Z,12.00
2022-11-25T10:40:33.225Z,12.10
2022-11-25T10:43:03.583Z,12.10
2022-11-25T10:45:37.580Z,12.10
2022-11-25T10:48:12.145Z,12.10
2022-11-25T10:50:48.552Z,12.20
2022-11-25T10:53:18.531Z,12.20
2022-11-25T10:56:00.028Z,12.20
2022-11-25T10:58:30.176Z,12.30
2022-11-25T11:01:19.224Z,12.20
2022-11-25T11:03:52.685Z,12.30
2022-11-25T11:06:32.493Z,12.30
2022-11-25T11:09:01.251Z,12.30
2022-11-25T11:11:31.487Z,12.30
2022-11-25T11:14:14.451Z,12.30
2022-11-25T11:16:45.658Z,12.30
2022-11-25T11:19:25.228Z,12.30
2022-11-25T11:21:54.056Z,12.20
2022-11-25T11:24:26.358Z,12.20
2022-11-25T11:27:05.013Z,12.20
2022-11-25T11:29:33.669Z,12.20
2022-11-25T11:32:03.148Z,12.30
2022-11-25T11:34:49.176Z,12.30
2022-11-25T11:37:38.339Z,12.30
2022-11-25T11:40:30.762Z,12.30
2022-11-25T11:43:03.801Z,12.30
2022-11-25T11:45:55.800Z,12.30
2022-11-25T11:48:28.741Z,12.30
2022-11-25T11:51:02.939Z,12.40
2022-11-25T11:53:32.776Z,12.30
2022-11-25T11:59:08.039Z,12.30
2022-11-25T12:01:43.437Z,12.30
2022-11-25T12:04:16.180Z,12.40
2022-11-25T12:06:47.864Z,12.40
2022-11-25T12:09:18.795Z,12.40
2022-11-25T12:11:50.074Z,12.40
2022-11-25T12:14:27.515Z,12.40
2022-11-25T12:17:16.516Z,12.40
2022-11-25T12:19:50.762Z,12.40
2022-11-25T12:22:21.303Z,12.40
2022-11-25T12:24:52.830Z,12.40
2022-11-25T12:27:22.990Z,12.40
2022-11-25T12:29:54.483Z,12.50
2022-11-25T12:32:35.663Z,12.50
2022-11-25T12:35:06.875Z,12.50
2022-11-25T12:37:38.844Z,12.50
2022-11-25T12:40:13.041Z,12.50
2022-11-25T12:42:42.257Z,12.50
2022-11-25T12:45:17.097Z,12.50
2022-11-25T12:47:46.029Z,12.50
2022-11-25T12:50:17.528Z,12.50
2022-11-25T12:52:54.765Z,12.60
2022-11-25T12:55:23.804Z,12.60
2022-11-25T12:58:08.699Z,12.60
2022-11-25T13:00:46.664Z,12.70
2022-11-25T13:03:33.331Z,12.60
2022-11-25T13:06:10.809Z,12.60
2022-11-25T13:08:53.182Z,12.60
2022-11-25T13:11:42.558Z,12.60
2022-11-25T13:14:17.466Z,12.50
2022-11-25T13:16:49.227Z,12.50
2022-11-25T13:19:19.431Z,12.50
2022-11-25T13:22:01.028Z,12.50
2022-11-25T13:24:48.455Z,12.50
2022-11-25T13:27:31.261Z,12.50
2022-11-25T13:30:03.490Z,12.50
2022-11-25T13:32:38.102Z,12.50
2022-11-25T13:35:37.135Z,12.50
2022-11-25T13:38:30.251Z,12.50
2022-11-25T13:41:26.764Z,12.60
2022-11-25T13:44:02.405Z,12.60
2022-11-25T13:46:40.097Z,12.60
2022-11-25T13:49:35.848Z,12.50
2022-11-25T13:52:25.603Z,12.60
2022-11-25T13:54:56.077Z,12.50
2022-11-25T13:57:31.570Z,12.50
2022-11-25T14:00:02.535Z,12.50
2022-11-25T14:02:45.527Z,12.50
2022-11-25T14:08:21.746Z,12.40
2022-11-25T14:11:01.457Z,12.30
2022-11-25T14:14:00.672Z,12.30
2022-11-25T14:16:50.946Z,12.20
2022-11-25T14:19:52.940Z,12.10
2022-11-25T14:22:36.793Z,12.10
2022-11-25T14:25:17.970Z,12.10
2022-11-25T14:27:49.256Z,12.00
2022-11-25T14:30:19.396Z,12.00
2022-11-25T14:32:57.961Z,11.90
2022-11-25T14:35:31.963Z,11.90
2022-11-25T14:38:05.189Z,11.90
2022-11-25T14:40:40.220Z,11.90
2022-11-25T14:43:14.283Z,11.90
2022-11-25T14:45:43.267Z,11.90
2022-11-25T14:48:15.677Z,11.90
2022-11-25T14:51:00.925Z,11.90
2022-11-25T14:53:30.635Z,11.80
2022-11-25T14:56:03.407Z,11.80
2022-11-25T14:58:32.803Z,11.80
2022-11-25T15:01:05.781Z,11.80
2022-11-25T15:03:35.194Z,11.80
2022-11-25T15:06:07.278Z,11.80
2022-11-25T15:08:41.788Z,11.80
2022-11-25T15:11:18.143Z,11.80
2022-11-25T15:13:49.069Z,11.80
2022-11-25T15:16:21.355Z,11.80
2022-11-25T15:18:53.169Z,11.80
2022-11-25T15:22:14.528Z,11.80
2022-11-25T15:24:33.916Z,11.80
2022-11-25T15:27:05.009Z,11.80
2022-11-25T15:29:43.039Z,11.80
2022-11-25T15:32:18.213Z,11.80
2022-11-25T15:34:48.161Z,11.80
2022-11-25T15:37:35.906Z,11.80
2022-11-25T15:40:32.959Z,11.80
2022-11-25T15:43:06.874Z,11.80
2022-11-25T15:45:45.150Z,11.80
2022-11-25T15:48:20.418Z,11.80
2022-11-25T15:50:49.371Z,11.80
2022-11-25T15:53:30.237Z,11.80
2022-11-25T15:56:03.251Z,11.80
2022-11-25T15:58:33.939Z,11.80
2022-11-25T16:01:04.663Z,11.80
2022-11-25T16:03:35.712Z,11.80
2022-11-25T16:06:19.801Z,11.80
2022-11-25T16:08:55.107Z,11.80
2022-11-25T16:11:25.640Z,11.80
2022-11-25T16:13:56.520Z,11.80
2022-11-25T16:16:30.720Z,11.80
2022-11-25T16:19:22.641Z,11.80
2022-11-25T16:21:57.916Z,11.80
2022-11-25T16:24:36.617Z,11.80
2022-11-25T16:27:08.571Z,11.80
2022-11-25T16:29:41.691Z,11.80
2022-11-25T16:32:31.640Z,11.70
2022-11-25T16:35:13.331Z,11.70
2022-11-25T16:37:47.024Z,11.70
2022-11-25T16:40:19.081Z,11.70
2022-11-25T16:42:50.716Z,11.70
2022-11-25T16:45:23.336Z,11.70
2022-11-25T16:47:52.572Z,11.70
2022-11-25T16:50:22.663Z,11.70
2022-11-25T16:52:51.616Z,11.70
2022-11-25T16:55:20.662Z,11.60
2022-11-25T16:57:49.609Z,11.70
2022-11-25T17:00:21.135Z,11.70
2022-11-25T17:02:49.972Z,11.70
2022-11-25T17:05:20.627Z,11.70
2022-11-25T17:07:50.505Z,11.70
2022-11-25T17:10:20.409Z,11.70
2022-11-25T17:12:50.409Z,11.70
2022-11-25T17:15:24.714Z,11.70
2022-11-25T17:17:54.012Z,11.70
2022-11-25T17:20:25.987Z,11.60
2022-11-25T17:22:55.751Z,11.60
2022-11-25T17:25:27.595Z,11.60
2022-11-25T17:28:01.462Z,11.60
2022-11-25T17:30:50.445Z,11.60
2022-11-25T17:33:21.409Z,11.60
2022-11-25T17:35:50.580Z,11.60
2022-11-25T17:38:21.581Z,11.60
2022-11-25T17:40:51.170Z,11.60
2022-11-25T17:43:21.503Z,11.60
2022-11-25T17:45:51.901Z,11.60
2022-11-25T17:48:20.848Z,11.60
2022-11-25T17:50:49.631Z,11.60
2022-11-25T17:53:18.593Z,11.50
2022-11-25T17:55:47.459Z,11.60
2022-11-25T17:58:19.365Z,11.60
2022-11-25T18:00:49.036Z,11.60
2022-11-25T18:03:19.978Z,11.60
2022-11-25T18:06:08.252Z,11.60
2022-11-25T18:08:37.370Z,11.60
2022-11-25T18:11:07.962Z,11.60
2022-11-25T18:13:40.305Z,11.60
2022-11-25T18:16:09.967Z,11.60
2022-11-25T18:18:40.717Z,11.50
2022-11-25T18:21:11.624Z,11.60
2022-11-25T18:23:40.815Z,11.50
2022-11-25T18:26:12.918Z,11.50
2022-11-25T18:28:42.658Z,11.40
2022-11-25T18:31:30.451Z,11.40
2022-11-25T18:34:00.841Z,11.40
2022-11-25T18:36:29.911Z,11.40
2022-11-25T18:38:58.621Z,11.40
2022-11-25T18:41:27.562Z,11.30
2022-11-25T18:44:04.006Z,11.30
2022-11-25T18:46:37.551Z,11.30
2022-11-25T18:49:14.191Z,11.30
2022-11-25T18:51:44.231Z,11.30
2022-11-25T18:54:13.054Z,11.30
2022-11-25T18:56:43.253Z,11.30
2022-11-25T18:59:17.848Z,11.30
2022-11-25T19:01:49.857Z,11.30
2022-11-25T19:04:21.118Z,11.30
2022-11-25T19:06:50.107Z,11.30
2022-11-25T19:09:20.098Z,11.30
2022-11-25T19:11:53.039Z,11.30
2022-11-25T19:14:31.510Z,11.30
2022-11-25T19:17:04.702Z,11.20
2022-11-25T19:19:37.863Z,11.30
2022-11-25T19:22:12.343Z,11.30
2022-11-25T19:24:41.608Z,11.30
2022-11-25T19:27:19.010Z,11.30
2022-11-25T19:29:48.777Z,11.30
2022-11-25T19:32:23.461Z,11.30
2022-11-25T19:34:58.736Z,11.40
2022-11-25T19:37:30.372Z,11.40
2022-11-25T19:39:59.560Z,11.40
2022-11-25T19:42:31.895Z,11.40
2022-11-25T19:45:00.894Z,11.40
2022-11-25T19:47:30.324Z,11.40
2022-11-25T19:50:01.789Z,11.50
2022-11-25T19:52:35.915Z,11.40
2022-11-25T19:55:24.690Z,11.40
2022-11-25T19:57:54.125Z,11.50
2022-11-25T20:00:24.977Z,11.50
2022-11-25T20:02:54.937Z,11.50
2022-11-25T20:05:43.843Z,11.50
2022-11-25T20:08:15.134Z,11.50
2022-11-25T20:10:44.879Z,11.40
2022-11-25T20:13:13.958Z,11.40
2022-11-25T20:15:43.939Z,11.40
2022-11-25T20:18:18.375Z,11.40
2022-11-25T20:20:51.710Z,11.40
2022-11-25T20:23:44.480Z,11.50
2022-11-25T20:26:19.283Z,11.40
2022-11-25T20:28:48.789Z,11.40
2022-11-25T20:31:17.629Z,11.40
2022-11-25T20:33:48.644Z,11.30
2022-11-25T20:36:22.589Z,11.30
2022-11-25T20:38:54.949Z,11.30
2022-11-25T20:41:27.910Z,11.30
2022-11-25T20:44:01.026Z,11.30
2022-11-25T20:46:31.111Z,11.30
2022-11-25T20:49:02.595Z,11.20
2022-11-25T20:51:33.296Z,11.20
2022-11-25T20:54:03.017Z,11.20
2022-11-25T20:56:50.649Z,11.20
2022-11-25T20:59:22.737Z,11.20
2022-11-25T21:02:10.017Z,11.10
2022-11-25T21:04:39.376Z,11.10
2022-11-25T21:07:16.094Z,11.10
2022-11-25T21:09:45.751Z,11.10
2022-11-25T21:12:19.240Z,11.10
2022-11-25T21:14:48.882Z,11.10
2022-11-25T21:17:17.803Z,11.10
2022-11-25T21:19:46.943Z,11.20
2022-11-25T21:22:17.627Z,11.10
2022-11-25T21:25:06.828Z,11.20
2022-11-25T21:27:36.267Z,11.10
2022-11-25T21:30:05.832Z,11.10
2022-11-25T21:32:35.956Z,11.10
2022-11-25T21:35:05.630Z,11.10
2022-11-25T21:37:38.005Z,11.10
2022-11-25T21:40:08.570Z,11.10
2022-11-25T21:42:38.353Z,11.00
2022-11-25T21:45:08.250Z,11.00
2022-11-25T21:47:37.299Z,10.90
2022-11-25T21:50:13.927Z,10.90
2022-11-25T21:52:44.408Z,10.80
2022-11-25T21:55:14.196Z,10.80
2022-11-25T21:57:43.448Z,10.70
2022-11-25T22:00:21.957Z,10.70
2022-11-25T22:02:50.845Z,10.60
2022-11-25T22:05:21.722Z,10.60
2022-11-25T22:07:52.255Z,10.60
2022-11-25T22:10:21.221Z,10.60
2022-11-25T22:12:50.129Z,10.50
2022-11-25T22:15:23.024Z,10.50
2022-11-25T22:17:57.096Z,10.50
2022-11-25T22:20:29.415Z,10.40
2022-11-25T22:22:59.757Z,10.40
2022-11-25T22:25:31.575Z,10.40
2022-11-25T22:28:00.478Z,10.40
2022-11-25T22:30:29.309Z,10.30
2022-11-25T22:33:02.577Z,10.30
2022-11-25T22:35:31.759Z,10.30
2022-11-25T22:38:02.283Z,10.30
2022-11-25T22:40:31.205Z,10.20
2022-11-25T22:43:21.222Z,10.20
2022-11-25T22:45:50.617Z,10.10
2022-11-25T22:48:23.460Z,10.10
2022-11-25T22:50:52.408Z,10.10
2022-11-25T22:53:22.699Z,10.00
2022-11-25T22:55:51.615Z,10.00
2022-11-25T22:58:20.659Z,10.00
2022-11-25T23:00:49.873Z,10.00
2022-11-25T23:03:21.515Z,10.00
2022-11-25T23:05:52.092Z,10.00
2022-11-25T23:08:24.993Z,10.00
2022-11-25T23:10:54.866Z,10.00
2022-11-25T23:13:24.302Z,10.00
2022-11-25T23:15:55.887Z,10.00
2022-11-25T23:18:29.580Z,10.00
2022-11-25T23:21:00.632Z,10.10
2022-11-25T23:23:31.283Z,10.10
2022-11-25T23:26:00.615Z,10.10
2022-11-25T23:28:29.389Z,10.20
2022-11-25T23:31:00.099Z,10.20
2022-11-25T23:33:32.136Z,10.20
2022-11-25T23:36:06.206Z,10.20
2022-11-25T23:38:43.563Z,10.20
2022-11-25T23:41:33.254Z,10.20
2022-11-25T23:44:07.521Z,10.30
2022-11-25T23:46:37.920Z,10.30
2022-11-25T23:49:13.407Z,10.30
2022-11-25T23:51:42.449Z,10.30
2022-11-25T23:54:15.671Z,10.30
2022-11-25T23:56:44.650Z,10.30
2022-11-25T23:59:15.325Z,10.40
